Time;durP1;ratioP1;P1;durP2;ratioP2;P2;SDS_P1;SDS_P2;PMS_P1;PMS_P2;Temp;Humidity;BMP_temperature;BMP_pressure;BME280_temperature;BME280_humidity;BME280_pressure;Samples;Min_cycle;Max_cycle;Signal;HPM_P1;HPM_P2
2022/08/29 00:00:28;;;;;;;;;;;;;;;19.70;57.78;100026.94;1088002;54;19943;-82
2022/08/29 00:01:29;;;;;;;;;;;;;;;19.72;57.44;100034.84;1088101;54;19943;-82
2022/08/29 00:02:33;;;;;;;;;;;;;;;19.70;56.75;100021.53;1088075;54;19950;-83
2022/08/29 00:03:35;;;;;;;;;;;;;;;19.72;57.29;100024.00;1088064;54;19966;-84
2022/08/29 00:04:38;;;;;;;;;;;;;;;19.68;57.08;100026.31;1088024;54;19943;-83
2022/08/29 00:05:39;;;;;;;;;;;;;;;19.71;57.14;100028.63;1087850;54;19966;-82
2022/08/29 00:06:43;;;;;;;;;;;;;;;19.72;56.95;100024.88;1087803;54;19954;-86
2022/08/29 00:07:44;;;;;;;;;;;;;;;19.74;56.77;100021.94;1088067;54;19949;-83
2022/08/29 00:08:48;;;;;;;;;;;;;;;19.73;56.68;100022.97;1087997;54;20748;-83
2022/08/29 00:09:49;;;;;;;;;;;;;;;19.71;56.67;100022.34;1087939;54;19998;-84
2022/08/29 00:10:53;;;;;;;;;;;;;;;19.67;56.42;100029.22;1087970;54;19998;-83
2022/08/29 00:11:54;;;;;;;;;;;;;;;19.66;57.02;100020.25;1088074;54;19942;-84
2022/08/29 00:13:00;;;;;;;;;;;;;;;19.67;56.93;100023.81;1087461;54;19942;-83
2022/08/29 00:14:02;;;;;;;;;;;;;;;19.61;56.94;100023.56;1088062;54;20003;-83
2022/08/29 00:15:06;;;;;;;;;;;;;;;19.60;56.65;100027.31;1087912;54;19949;-82
2022/08/29 00:16:08;;;;;;;;;;;;;;;19.62;56.79;100025.25;1088079;54;20750;-83
2022/08/29 00:17:11;;;;;;;;;;;;;;;19.57;56.34;100026.91;1087932;54;19942;-83
2022/08/29 00:18:13;;;;;;;;;;;;;;;19.59;56.65;100030.25;1087944;54;19948;-83
2022/08/29 00:19:17;;;;;;;;;;;;;;;19.52;56.12;100024.78;1087995;54;19966;-83
2022/08/29 00:20:20;;;;;;;;;;;;;;;19.47;56.01;100028.13;1087935;54;19950;-83
2022/08/29 00:21:23;;;;;;;;;;;;;;;19.51;56.17;100019.59;1087992;54;19943;-83
2022/08/29 00:22:25;;;;;;;;;;;;;;;19.52;56.00;100029.41;1088013;54;19954;-83
2022/08/29 00:23:28;;;;;;;;;;;;;;;19.52;56.21;100023.97;1087928;54;19943;-82
2022/08/29 00:24:30;;;;;;;;;;;;;;;19.53;56.32;100025.66;1087922;54;19943;-81
2022/08/29 00:25:33;;;;;;;;;;;;;;;19.52;55.95;100023.97;1087869;54;19954;-84
2022/08/29 00:26:35;;;;;;;;;;;;;;;19.51;56.00;100025.84;1087845;54;19943;-84
2022/08/29 00:27:38;;;;;;;;;;;;;;;19.49;55.88;100022.50;1087947;54;19957;-84
2022/08/29 00:28:45;;;;;;;;;;;;;;;19.47;55.69;100024.59;1087972;54;19950;-85
2022/08/29 00:29:46;;;;;;;;;;;;;;;19.43;55.30;100018.75;1087863;54;19942;-84
2022/08/29 00:30:50;;;;;;;;;;;;;;;19.41;55.67;100022.72;1087979;54;20011;-84
2022/08/29 00:31:51;;;;;;;;;;;;;;;19.44;55.83;100027.69;1087923;54;19942;-84
2022/08/29 00:32:55;;;;;;;;;;;;;;;19.43;55.41;100026.88;1087905;54;20019;-82
2022/08/29 00:33:56;;;;;;;;;;;;;;;19.44;55.64;100031.25;1087960;54;19973;-83
2022/08/29 00:35:00;;;;;;;;;;;;;;;19.48;55.62;100035.22;1089077;39;20563;-85
2022/08/29 00:37:09;;;;;;;;;;;;;;;19.50;55.65;100029.63;1084828;54;19973;-86
2022/08/29 00:38:29;;;;;;;;;;;;;;;19.51;55.60;100028.53;1086956;54;19939;31
2022/08/29 00:40:38;;;;;;;;;;;;;;;19.46;55.56;100020.22;1087968;54;19929;-85
2022/08/29 00:41:39;;;;;;;;;;;;;;;19.43;55.60;100028.72;1088525;54;20308;-85
2022/08/29 00:42:45;;;;;;;;;;;;;;;19.39;55.22;100028.31;1088258;54;19942;-85
2022/08/29 00:46:24;;;;;;;;;;;;;;;19.41;54.57;100020.81;1088060;54;19943;-86
2022/08/29 00:47:32;;;;;;;;;;;;;;;19.44;54.57;100023.13;1094266;46;19994;-85
2022/08/29 00:49:50;;;;;;;;;;;;;;;19.38;54.07;100032.06;1088051;54;19946;-87
2022/08/29 00:50:53;;;;;;;;;;;;;;;19.35;53.95;100020.78;1088109;54;19943;-85
2022/08/29 00:51:58;;;;;;;;;;;;;;;19.38;54.56;100028.53;1088344;54;20364;-85
2022/08/29 00:55:22;;;;;;;;;;;;;;;19.38;54.67;100028.53;1087931;54;19966;-86
2022/08/29 00:56:27;;;;;;;;;;;;;;;19.36;53.94;100030.59;1088064;54;20899;-84
2022/08/29 00:57:37;;;;;;;;;;;;;;;19.30;54.81;100033.09;1088229;54;19950;-87
2022/08/29 00:58:44;;;;;;;;;;;;;;;19.24;53.57;100027.63;1087961;54;19943;-84
2022/08/29 00:59:52;;;;;;;;;;;;;;;19.25;53.72;100024.72;1087952;54;20296;-86
2022/08/29 01:00:54;;;;;;;;;;;;;;;19.21;54.32;100033.44;1088018;54;19974;-83
2022/08/29 01:02:02;;;;;;;;;;;;;;;19.16;54.03;100026.78;1087966;54;20014;-84
2022/08/29 01:03:04;;;;;;;;;;;;;;;19.19;54.14;100030.94;1088159;54;19950;-83
2022/08/29 01:04:11;;;;;;;;;;;;;;;19.18;54.01;100027.38;1088185;54;19958;-85
2022/08/29 01:05:14;;;;;;;;;;;;;;;19.16;54.42;100029.50;1088203;54;19927;-84
2022/08/29 01:06:18;;;;;;;;;;;;;;;19.17;53.90;100038.44;1087925;54;19950;-83
2022/08/29 01:07:20;;;;;;;;;;;;;;;19.14;54.03;100038.84;1088382;54;19942;-88
2022/08/29 01:08:25;;;;;;;;;;;;;;;19.11;54.55;100034.66;1088261;54;19930;-86
2022/08/29 01:09:28;;;;;;;;;;;;;;;19.13;54.52;100037.16;1088094;54;19998;-80
2022/08/29 01:13:05;;;;;;;;;;;;;;;19.04;54.95;100041.06;1088044;54;19939;-83
2022/08/29 01:14:07;;;;;;;;;;;;;;;19.02;54.89;100039.44;1088084;54;20731;-84
2022/08/29 01:15:15;;;;;;;;;;;;;;;18.97;54.75;100041.88;1090491;39;21582;-81
2022/08/29 01:16:20;;;;;;;;;;;;;;;18.91;54.88;100036.38;1087928;54;19943;-84
2022/08/29 01:17:33;;;;;;;;;;;;;;;18.87;55.00;100038.66;1088047;54;19946;-85
2022/08/29 01:18:35;;;;;;;;;;;;;;;18.86;54.66;100043.25;1087931;54;19966;-87
2022/08/29 01:19:46;;;;;;;;;;;;;;;18.85;54.64;100036.16;1088043;54;20587;-83
2022/08/29 01:21:01;;;;;;;;;;;;;;;18.88;54.83;100037.63;1088141;54;19974;-85
2022/08/29 01:22:19;;;;;;;;;;;;;;;18.82;54.76;100035.72;1087920;54;19979;-83
2022/08/29 01:23:37;;;;;;;;;;;;;;;18.81;54.69;100039.47;1087933;54;19943;-82
2022/08/29 01:24:44;;;;;;;;;;;;;;;18.79;55.02;100042.41;1087770;54;19950;-86
2022/08/29 01:25:49;;;;;;;;;;;;;;;18.79;55.11;100042.41;1087938;54;19942;-84
2022/08/29 01:26:51;;;;;;;;;;;;;;;18.78;55.12;100040.72;1088075;54;20546;-86
2022/08/29 01:27:58;;;;;;;;;;;;;;;18.77;55.39;100038.19;1088025;54;20010;-83
2022/08/29 01:28:59;;;;;;;;;;;;;;;18.75;54.92;100038.41;1089526;39;20527;-83
2022/08/29 01:30:03;;;;;;;;;;;;;;;18.73;55.03;100043.16;1087816;54;19942;-84
2022/08/29 01:31:05;;;;;;;;;;;;;;;18.73;54.64;100036.94;1087998;54;20015;-84
2022/08/29 01:32:11;;;;;;;;;;;;;;;18.76;54.80;100041.94;1089918;46;20606;-84
2022/08/29 01:33:12;;;;;;;;;;;;;;;18.74;53.98;100044.84;1087832;54;19942;-80
2022/08/29 01:34:17;;;;;;;;;;;;;;;18.78;54.45;100043.44;1088138;54;20642;-84
2022/08/29 01:35:18;;;;;;;;;;;;;;;18.78;54.72;100029.03;1087999;54;19974;-83
2022/08/29 01:36:23;;;;;;;;;;;;;;;18.71;54.75;100039.81;1088044;54;19942;-80
2022/08/29 01:37:27;;;;;;;;;;;;;;;18.69;54.58;100034.59;1087920;54;19942;-80
2022/08/29 01:38:32;;;;;;;;;;;;;;;18.69;54.65;100039.19;1087846;54;19942;-81
2022/08/29 01:39:34;;;;;;;;;;;;;;;18.71;54.08;100037.09;1088000;54;19942;-83
2022/08/29 01:40:40;;;;;;;;;;;;;;;18.68;54.29;100034.81;1087790;54;19950;-84
2022/08/29 01:41:42;;;;;;;;;;;;;;;18.73;54.28;100035.03;1088102;54;19945;-82
2022/08/29 01:42:46;;;;;;;;;;;;;;;18.75;54.44;100030.28;1087979;54;19957;-83
2022/08/29 01:43:49;;;;;;;;;;;;;;;18.68;54.87;100029.41;1088020;54;19986;-81
2022/08/29 01:44:54;;;;;;;;;;;;;;;18.69;55.09;100026.50;1087772;54;19954;-86
2022/08/29 01:45:56;;;;;;;;;;;;;;;18.68;54.72;100030.22;1090940;39;20614;-81
2022/08/29 01:47:01;;;;;;;;;;;;;;;18.64;54.61;100026.25;1088063;54;19943;-81
2022/08/29 01:48:02;;;;;;;;;;;;;;;18.59;55.01;100025.19;1088014;54;19935;-83
2022/08/29 01:49:08;;;;;;;;;;;;;;;18.61;54.84;100023.13;1087945;54;19966;-84
2022/08/29 01:50:14;;;;;;;;;;;;;;;18.61;54.83;100029.34;1087620;54;20365;-82
2022/08/29 01:51:17;;;;;;;;;;;;;;;18.61;54.99;100034.78;1087909;54;19942;-84
2022/08/29 01:52:19;;;;;;;;;;;;;;;18.63;54.58;100038.13;1087726;54;19977;-85
2022/08/29 01:53:23;;;;;;;;;;;;;;;18.63;55.04;100032.72;1087745;54;19942;-84
2022/08/29 01:54:24;;;;;;;;;;;;;;;18.65;54.81;100037.91;1087683;54;19950;-83
2022/08/29 01:55:27;;;;;;;;;;;;;;;18.61;54.60;100037.47;1087729;54;20029;-83
2022/08/29 01:56:33;;;;;;;;;;;;;;;18.65;54.74;100032.50;1087836;54;19949;-85
2022/08/29 01:57:38;;;;;;;;;;;;;;;18.69;54.62;100047.31;1088222;46;20027;-83
2022/08/29 01:58:39;;;;;;;;;;;;;;;18.76;54.55;100042.78;1087729;54;19966;-84
2022/08/29 01:59:44;;;;;;;;;;;;;;;18.77;54.43;100039.03;1087917;54;19970;-83
2022/08/29 02:00:45;;;;;;;;;;;;;;;18.81;54.54;100043.00;1088790;39;20160;-86
2022/08/29 02:01:51;;;;;;;;;;;;;;;18.82;54.39;100033.84;1087903;54;19933;-84
2022/08/29 02:02:52;;;;;;;;;;;;;;;18.82;54.31;100041.97;1088038;54;19938;-84
2022/08/29 02:03:57;;;;;;;;;;;;;;;18.74;54.70;100042.13;1088049;54;19949;-84
2022/08/29 02:04:58;;;;;;;;;;;;;;;18.85;54.56;100036.16;1087972;54;19949;-85
2022/08/29 02:06:08;;;;;;;;;;;;;;;18.84;54.42;100042.63;1088039;54;19990;-84
2022/08/29 02:07:09;;;;;;;;;;;;;;;18.93;54.32;100043.34;1087989;54;19974;-84
2022/08/29 02:08:13;;;;;;;;;;;;;;;18.96;54.02;100050.22;1087861;54;19999;-87
2022/08/29 02:09:14;;;;;;;;;;;;;;;19.00;54.07;100043.34;1087835;54;19967;-83
2022/08/29 02:10:18;;;;;;;;;;;;;;;18.91;54.24;100049.94;1087754;54;20544;-83
2022/08/29 02:11:19;;;;;;;;;;;;;;;18.86;54.59;100037.00;1087763;54;19949;-84
2022/08/29 02:12:26;;;;;;;;;;;;;;;18.89;54.50;100046.63;1087875;54;19938;-84
2022/08/29 02:13:27;;;;;;;;;;;;;;;18.94;54.25;100041.44;1087826;54;19935;-84
2022/08/29 02:14:31;;;;;;;;;;;;;;;18.96;54.05;100045.63;1087947;54;19938;-83
2022/08/29 02:15:33;;;;;;;;;;;;;;;19.00;54.13;100043.34;1087775;54;19927;-83
2022/08/29 02:16:36;;;;;;;;;;;;;;;19.02;54.21;100044.00;1087821;54;19943;-84
2022/08/29 02:17:38;;;;;;;;;;;;;;;18.96;54.12;100053.75;1087641;54;19943;-81
2022/08/29 02:18:42;;;;;;;;;;;;;;;19.00;54.21;100054.19;1087827;54;19943;-83
2022/08/29 02:19:43;;;;;;;;;;;;;;;18.99;54.10;100055.22;1087975;54;19985;-85
2022/08/29 02:21:50;;;;;;;;;;;;;;;19.03;53.81;100048.38;1088219;54;19953;-88
2022/08/29 02:22:51;;;;;;;;;;;;;;;19.04;53.95;100044.63;1088249;54;19979;-84
2022/08/29 02:23:58;;;;;;;;;;;;;;;19.03;53.94;100053.78;1088216;54;19958;-86
2022/08/29 02:24:59;;;;;;;;;;;;;;;19.03;54.11;100045.66;1088249;54;19943;-87
2022/08/29 02:26:03;;;;;;;;;;;;;;;19.06;54.17;100056.13;1087705;54;20571;-85
2022/08/29 02:27:04;;;;;;;;;;;;;;;19.07;53.88;100060.50;1087999;54;19943;-87
2022/08/29 02:29:14;;;;;;;;;;;;;;;18.98;53.96;100057.09;1087943;54;19962;-84
2022/08/29 02:30:15;;;;;;;;;;;;;;;18.97;54.21;100049.19;1088237;54;19942;-83
2022/08/29 02:31:19;;;;;;;;;;;;;;;18.98;54.65;100051.69;1088030;54;19938;-82
2022/08/29 02:32:21;;;;;;;;;;;;;;;18.99;54.80;100055.22;1088243;54;19927;-85
2022/08/29 02:33:25;;;;;;;;;;;;;;;18.94;55.10;100049.56;1088141;54;19946;-83
2022/08/29 02:35:31;;;;;;;;;;;;;;;18.86;56.02;100048.69;1088151;54;19939;-84
2022/08/29 02:36:32;;;;;;;;;;;;;;;18.81;56.46;100055.72;1088025;54;19950;-85
2022/08/29 02:37:36;;;;;;;;;;;;;;;18.71;56.55;100053.34;1088070;54;20006;-84
2022/08/29 02:38:38;;;;;;;;;;;;;;;18.61;57.41;100055.59;1088114;54;19935;-85
2022/08/29 02:39:42;;;;;;;;;;;;;;;18.51;57.74;100055.94;1087955;54;19942;-85
2022/08/29 02:40:44;;;;;;;;;;;;;;;18.48;57.69;100059.88;1088069;54;19943;-86
2022/08/29 02:41:48;;;;;;;;;;;;;;;18.32;58.54;100057.47;1087943;54;19994;-84
2022/08/29 02:42:49;;;;;;;;;;;;;;;18.24;59.06;100056.53;1087963;54;19943;-87
2022/08/29 02:43:53;;;;;;;;;;;;;;;18.14;59.42;100064.16;1088065;54;19950;-88
2022/08/29 02:44:57;;;;;;;;;;;;;;;18.12;59.68;100060.81;1088179;54;19942;-84
2022/08/29 02:46:00;;;;;;;;;;;;;;;18.05;60.02;100060.75;1088071;54;19927;-83
2022/08/29 02:47:02;;;;;;;;;;;;;;;18.06;59.61;100061.59;1088254;54;19934;-84
2022/08/29 02:48:07;;;;;;;;;;;;;;;18.06;59.83;100058.88;1088118;54;19950;-82
2022/08/29 02:50:13;;;;;;;;;;;;;;;17.98;60.23;100059.88;1087944;54;19942;-85
2022/08/29 02:52:21;;;;;;;;;;;;;;;18.07;59.60;100055.16;1087368;54;19939;-85
2022/08/29 02:53:23;;;;;;;;;;;;;;;18.05;60.29;100052.66;1088163;54;19942;-84
2022/08/29 02:54:27;;;;;;;;;;;;;;;18.08;59.93;100054.13;1088089;54;19950;-86
2022/08/29 02:55:29;;;;;;;;;;;;;;;18.11;59.72;100053.75;1090520;39;20577;-84
2022/08/29 02:56:32;;;;;;;;;;;;;;;18.11;59.47;100051.03;1088146;54;19958;-87
2022/08/29 02:57:34;;;;;;;;;;;;;;;18.13;59.87;100053.53;1088223;54;20571;-85
2022/08/29 02:58:38;;;;;;;;;;;;;;;18.11;60.16;100050.19;1088129;54;19943;-87
2022/08/29 02:59:39;;;;;;;;;;;;;;;18.11;59.78;100051.03;1088105;54;19975;-86
2022/08/29 03:00:46;;;;;;;;;;;;;;;18.13;60.12;100054.38;1088062;54;20054;-85
2022/08/29 03:01:47;;;;;;;;;;;;;;;18.15;59.47;100057.72;1088292;54;19934;-84
2022/08/29 03:03:53;;;;;;;;;;;;;;;18.15;59.51;100055.00;1088198;54;20039;-85
2022/08/29 03:05:59;;;;;;;;;;;;;;;18.13;60.09;100051.69;1088043;54;19938;-83
2022/08/29 03:07:04;;;;;;;;;;;;;;;18.09;59.98;100048.50;1088114;54;19966;-86
2022/08/29 03:08:10;;;;;;;;;;;;;;;17.98;59.27;100050.91;1089728;31;20550;-85
2022/08/29 03:09:11;;;;;;;;;;;;;;;17.98;60.19;100054.47;1088041;54;19942;-84
2022/08/29 03:10:15;;;;;;;;;;;;;;;17.97;60.25;100055.47;1088028;54;21468;-86
2022/08/29 03:11:17;;;;;;;;;;;;;;;17.97;60.00;100058.19;1088213;54;19927;-86
2022/08/29 03:12:20;;;;;;;;;;;;;;;17.99;60.39;100055.28;1088316;47;19931;-85
2022/08/29 03:13:23;;;;;;;;;;;;;;;18.00;60.28;100059.66;1088232;54;19950;-84
2022/08/29 03:15:29;;;;;;;;;;;;;;;18.02;60.26;100057.59;1087730;54;19945;-84
2022/08/29 03:16:32;;;;;;;;;;;;;;;17.96;60.26;100055.63;1087917;54;19950;-85
2022/08/29 03:17:36;;;;;;;;;;;;;;;17.99;60.30;100053.44;1088011;54;19994;-86
2022/08/29 03:18:40;;;;;;;;;;;;;;;18.00;60.01;100057.78;1088163;54;19926;-86
2022/08/29 03:19:41;;;;;;;;;;;;;;;18.03;60.03;100062.00;1088239;54;19942;-84
2022/08/29 03:20:46;;;;;;;;;;;;;;;18.00;59.87;100055.06;1088087;54;19942;-85
2022/08/29 03:21:48;;;;;;;;;;;;;;;18.00;59.86;100059.66;1093369;31;20469;-86
2022/08/29 03:22:52;;;;;;;;;;;;;;;18.05;59.62;100051.78;1092069;39;20620;-87
2022/08/29 03:23:55;;;;;;;;;;;;;;;18.06;59.86;100059.72;1089996;39;20514;-84
2022/08/29 03:25:00;;;;;;;;;;;;;;;18.06;59.84;100064.28;1088441;54;19951;-84
2022/08/29 03:26:02;;;;;;;;;;;;;;;18.06;59.56;100058.88;1088046;54;19954;-86
2022/08/29 03:27:05;;;;;;;;;;;;;;;18.05;59.51;100057.19;1088370;54;19938;-84
2022/08/29 03:28:07;;;;;;;;;;;;;;;18.06;59.85;100056.19;1088471;54;19927;-85
2022/08/29 03:29:11;;;;;;;;;;;;;;;18.02;60.04;100058.44;1088394;54;19942;-85
2022/08/29 03:30:13;;;;;;;;;;;;;;;18.01;60.02;100072.16;1088227;54;19942;-85
2022/08/29 03:31:17;;;;;;;;;;;;;;;18.03;59.69;100057.41;1088337;54;20002;-85
2022/08/29 03:33:25;;;;;;;;;;;;;;;18.02;60.19;100057.59;1088386;54;19994;-88
2022/08/29 03:34:27;;;;;;;;;;;;;;;17.98;60.51;100050.91;1088504;54;19973;-83
2022/08/29 03:35:31;;;;;;;;;;;;;;;17.96;60.43;100061.91;1088537;54;20050;-85
2022/08/29 03:36:35;;;;;;;;;;;;;;;17.96;60.46;100053.81;1088442;54;19949;-83
2022/08/29 03:37:36;;;;;;;;;;;;;;;17.93;60.55;100060.41;1088174;54;19927;-86
2022/08/29 03:38:41;;;;;;;;;;;;;;;17.91;60.68;100058.91;1087965;54;19943;-85
2022/08/29 03:39:42;;;;;;;;;;;;;;;17.89;60.63;100059.09;1088279;54;19942;-86
2022/08/29 03:40:46;;;;;;;;;;;;;;;17.81;61.29;100055.69;1092416;46;19950;-84
2022/08/29 03:41:47;;;;;;;;;;;;;;;17.82;61.16;100062.75;1088569;54;19934;-83
2022/08/29 03:42:51;;;;;;;;;;;;;;;17.73;61.88;100064.78;1088167;54;19943;-82
2022/08/29 03:43:54;;;;;;;;;;;;;;;17.74;61.43;100061.88;1088484;54;19930;-86
2022/08/29 03:45:06;;;;;;;;;;;;;;;17.75;61.25;100057.31;1088455;54;20678;-86
2022/08/29 03:46:10;;;;;;;;;;;;;;;17.72;61.68;100063.91;1088426;54;19933;-85
2022/08/29 03:47:11;;;;;;;;;;;;;;;17.73;61.27;100065.59;1088422;54;19966;-85
2022/08/29 03:48:15;;;;;;;;;;;;;;;17.75;61.46;100057.31;1088458;54;19950;-85
2022/08/29 03:49:18;;;;;;;;;;;;;;;17.73;61.72;100059.38;1088352;54;19954;-86
2022/08/29 03:50:23;;;;;;;;;;;;;;;17.75;61.46;100060.00;1088459;54;19927;-86
2022/08/29 03:51:24;;;;;;;;;;;;;;;17.77;61.40;100060.63;1088923;39;20228;-85
2022/08/29 03:52:28;;;;;;;;;;;;;;;17.73;61.33;100054.78;1088505;54;19927;-84
2022/08/29 03:53:31;;;;;;;;;;;;;;;17.70;60.98;100054.31;1088360;54;19949;-84
2022/08/29 03:54:35;;;;;;;;;;;;;;;17.68;61.12;100061.78;1088396;54;19942;-86
2022/08/29 03:55:39;;;;;;;;;;;;;;;17.65;60.67;100060.31;1088363;54;20016;-84
2022/08/29 03:57:48;;;;;;;;;;;;;;;17.64;60.91;100060.50;1088187;54;19950;-85
2022/08/29 03:58:49;;;;;;;;;;;;;;;17.57;61.09;100066.66;1088249;54;19943;-86
2022/08/29 03:59:53;;;;;;;;;;;;;;;17.57;60.66;100063.97;1088841;46;19943;-84
2022/08/29 04:00:54;;;;;;;;;;;;;;;17.47;61.24;100055.34;1088092;54;19950;-85
2022/08/29 04:01:58;;;;;;;;;;;;;;;17.50;61.25;100060.34;1088404;54;20018;-87
2022/08/29 04:02:59;;;;;;;;;;;;;;;17.52;61.04;100065.59;1088409;54;19973;-86
2022/08/29 04:04:03;;;;;;;;;;;;;;;17.43;61.33;100064.84;1088217;54;19946;-85
2022/08/29 04:05:08;;;;;;;;;;;;;;;17.37;61.54;100060.22;1088116;54;19973;-85
2022/08/29 04:06:13;;;;;;;;;;;;;;;17.25;62.03;100065.22;1088185;54;19950;-85
2022/08/29 04:07:14;;;;;;;;;;;;;;;17.27;61.65;100060.47;1088364;54;19950;-85
2022/08/29 04:08:18;;;;;;;;;;;;;;;17.19;61.92;100066.00;1088278;54;19943;-84
2022/08/29 04:09:19;;;;;;;;;;;;;;;17.25;61.88;100066.09;1088337;54;19943;-86
2022/08/29 04:10:24;;;;;;;;;;;;;;;17.29;61.85;100067.38;1088353;54;19950;-83
2022/08/29 04:11:27;;;;;;;;;;;;;;;17.33;61.57;100067.84;1088383;54;19943;-85
2022/08/29 04:12:31;;;;;;;;;;;;;;;17.38;61.17;100067.28;1088531;54;19982;-86
2022/08/29 04:13:35;;;;;;;;;;;;;;;17.34;61.26;100074.09;1088140;54;20003;-83
2022/08/29 04:14:36;;;;;;;;;;;;;;;17.35;61.24;100075.75;1088352;54;19931;-84
2022/08/29 04:15:41;;;;;;;;;;;;;;;17.36;61.48;100070.16;1088396;54;19958;-85
2022/08/29 04:16:45;;;;;;;;;;;;;;;17.38;61.29;100070.81;1092044;39;20577;-86
2022/08/29 04:17:49;;;;;;;;;;;;;;;17.33;61.35;100067.00;1089061;46;19938;-83
2022/08/29 04:18:50;;;;;;;;;;;;;;;17.25;61.69;100067.94;1088130;54;19943;-82
2022/08/29 04:19:54;;;;;;;;;;;;;;;17.15;62.03;100070.94;1088111;54;19927;-82
2022/08/29 04:21:03;;;;;;;;;;;;;;;17.16;61.72;100067.22;1088138;54;19942;-82
2022/08/29 04:22:07;;;;;;;;;;;;;;;17.07;62.20;100071.03;1088330;54;19943;-84
2022/08/29 04:23:11;;;;;;;;;;;;;;;17.12;61.76;100076.69;1092354;39;20256;-86
2022/08/29 04:24:15;;;;;;;;;;;;;;;17.01;61.85;100072.63;1088035;54;19927;-83
2022/08/29 04:25:17;;;;;;;;;;;;;;;17.02;62.16;100066.19;1088252;54;19950;-85
2022/08/29 04:26:21;;;;;;;;;;;;;;;16.98;62.26;100062.19;1088324;46;19935;-83
2022/08/29 04:27:22;;;;;;;;;;;;;;;17.02;62.18;100065.34;1088060;54;19934;-85
2022/08/29 04:28:26;;;;;;;;;;;;;;;16.97;62.09;100071.31;1088593;46;19962;-85
2022/08/29 04:29:27;;;;;;;;;;;;;;;16.99;62.23;100070.13;1089634;46;19938;-83
2022/08/29 04:30:31;;;;;;;;;;;;;;;16.99;61.93;100075.50;1088099;54;19942;-84
2022/08/29 04:31:32;;;;;;;;;;;;;;;16.95;62.19;100084.19;1088251;54;19927;-84
2022/08/29 04:32:36;;;;;;;;;;;;;;;16.92;62.42;100081.81;1088094;54;19949;-83
2022/08/29 04:33:37;;;;;;;;;;;;;;;16.87;62.24;100082.34;1088066;54;19943;-83
2022/08/29 04:34:41;;;;;;;;;;;;;;;16.87;62.31;100081.50;1087194;54;19953;-79
2022/08/29 04:35:42;;;;;;;;;;;;;;;16.84;62.60;100080.03;1086964;54;19974;-78
2022/08/29 04:36:49;;;;;;;;;;;;;;;16.81;62.59;100086.63;1086706;54;19950;-79
2022/08/29 04:37:50;;;;;;;;;;;;;;;16.79;62.66;100085.16;1087722;54;19954;-78
2022/08/29 04:38:53;;;;;;;;;;;;;;;16.80;62.40;100087.66;1087627;54;19994;-77
2022/08/29 04:39:55;;;;;;;;;;;;;;;16.79;62.25;100088.66;1085316;54;19957;-79
2022/08/29 04:40:58;;;;;;;;;;;;;;;16.76;62.56;100082.81;1085341;47;19946;-79
2022/08/29 04:42:00;;;;;;;;;;;;;;;16.77;62.55;100084.50;1085389;46;19950;-79
2022/08/29 04:43:04;;;;;;;;;;;;;;;16.76;62.45;100080.97;1085554;54;19953;-78
2022/08/29 04:44:08;;;;;;;;;;;;;;;16.74;62.61;100076.75;1086391;46;19947;-78
2022/08/29 04:45:13;;;;;;;;;;;;;;;16.75;62.64;100078.44;1087108;46;20476;-79
2022/08/29 04:46:15;;;;;;;;;;;;;;;16.79;62.36;100085.16;1085415;54;19947;-78
2022/08/29 04:47:20;;;;;;;;;;;;;;;16.80;62.67;100092.22;1085185;54;19950;-78
2022/08/29 04:48:21;;;;;;;;;;;;;;;16.82;62.47;100085.63;1084991;54;20042;-79
2022/08/29 04:49:25;;;;;;;;;;;;;;;16.82;62.14;100084.75;1084694;54;19957;-79
2022/08/29 04:50:26;;;;;;;;;;;;;;;16.87;62.05;100082.34;1085731;39;20338;-78
2022/08/29 04:51:33;;;;;;;;;;;;;;;16.83;62.41;100081.03;1084716;54;19946;-77
2022/08/29 04:52:37;;;;;;;;;;;;;;;16.80;62.57;100081.44;1085094;54;19954;-79
2022/08/29 04:53:41;;;;;;;;;;;;;;;16.78;62.41;100083.47;1084662;54;19946;-78
2022/08/29 04:54:42;;;;;;;;;;;;;;;16.74;62.39;100076.75;1086111;39;20341;-77
2022/08/29 04:55:46;;;;;;;;;;;;;;;16.75;62.57;100084.69;1084782;46;20025;-78
2022/08/29 04:56:47;;;;;;;;;;;;;;;16.76;62.63;100085.50;1084391;54;19950;-78
2022/08/29 04:57:52;;;;;;;;;;;;;;;16.72;62.65;100078.81;1084241;54;19953;-78
2022/08/29 04:58:53;;;;;;;;;;;;;;;16.76;62.54;100074.72;1084520;54;20791;-77
2022/08/29 04:59:59;;;;;;;;;;;;;;;16.76;62.24;100075.56;1084742;54;19953;-78
2022/08/29 05:01:01;;;;;;;;;;;;;;;16.76;62.18;100080.09;1084668;54;19957;-79
2022/08/29 05:02:05;;;;;;;;;;;;;;;16.76;62.56;100085.50;1084011;54;20030;-77
2022/08/29 05:03:06;;;;;;;;;;;;;;;16.73;62.38;100089.41;1084483;54;20002;-77
2022/08/29 05:04:10;;;;;;;;;;;;;;;16.80;62.15;100087.66;1084483;54;19958;-77
2022/08/29 05:05:12;;;;;;;;;;;;;;;16.84;61.84;100082.72;1084329;54;20033;-78
2022/08/29 05:06:17;;;;;;;;;;;;;;;16.88;62.16;100088.59;1084253;54;20527;-78
2022/08/29 05:07:20;;;;;;;;;;;;;;;16.90;61.98;100090.09;1084171;54;19986;-78
2022/08/29 05:08:27;;;;;;;;;;;;;;;16.93;62.03;100092.44;1084420;54;19954;-77
2022/08/29 05:09:31;;;;;;;;;;;;;;;16.97;61.79;100092.91;1084446;39;20275;-80
2022/08/29 05:10:33;;;;;;;;;;;;;;;16.92;61.90;100093.44;1084250;54;20030;-78
2022/08/29 05:11:38;;;;;;;;;;;;;;;16.92;61.91;100096.13;1084630;54;19946;-77
2022/08/29 05:12:40;;;;;;;;;;;;;;;16.87;61.89;100087.75;1084482;54;19986;-77
2022/08/29 05:13:44;;;;;;;;;;;;;;;16.83;62.14;100098.09;1084806;54;19953;-78
2022/08/29 05:14:45;;;;;;;;;;;;;;;16.81;61.90;100096.59;1084087;54;19946;-81
2022/08/29 05:15:49;;;;;;;;;;;;;;;16.77;61.90;100096.09;1084661;54;19974;-79
2022/08/29 05:16:50;;;;;;;;;;;;;;;16.74;62.46;100101.03;1084390;54;19973;-78
2022/08/29 05:17:54;;;;;;;;;;;;;;;16.71;62.53;100106.81;1084205;54;19945;-78
2022/08/29 05:18:57;;;;;;;;;;;;;;;16.67;62.16;100093.69;1084631;54;19947;-78
2022/08/29 05:20:02;;;;;;;;;;;;;;;16.69;62.12;100101.59;1084773;54;20054;-78
2022/08/29 05:21:04;;;;;;;;;;;;;;;16.73;62.17;100096.66;1084659;54;20430;-76
2022/08/29 05:22:08;;;;;;;;;;;;;;;16.67;61.96;100099.09;1084603;54;19947;-78
2022/08/29 05:23:09;;;;;;;;;;;;;;;16.68;62.19;100099.91;1084483;54;20453;-77
2022/08/29 05:24:16;;;;;;;;;;;;;;;16.75;62.00;100102.72;1085228;46;20305;-78
2022/08/29 05:25:17;;;;;;;;;;;;;;;16.75;62.20;100105.41;1084581;54;19946;-79
2022/08/29 05:26:21;;;;;;;;;;;;;;;16.73;62.26;100102.91;1084550;54;19978;-77
2022/08/29 05:27:23;;;;;;;;;;;;;;;16.73;62.21;100107.47;1084801;54;20293;-77
2022/08/29 05:28:27;;;;;;;;;;;;;;;16.74;61.93;100111.84;1084935;54;19954;-77
2022/08/29 05:29:31;;;;;;;;;;;;;;;16.73;61.92;100105.63;1084660;54;19946;-77
2022/08/29 05:30:33;;;;;;;;;;;;;;;16.72;62.05;100112.03;1084589;54;19958;-77
2022/08/29 05:31:39;;;;;;;;;;;;;;;16.72;62.03;100108.50;1084800;54;19977;-78
2022/08/29 05:32:41;;;;;;;;;;;;;;;16.70;62.10;100105.97;1084688;54;19947;-79
2022/08/29 05:33:46;;;;;;;;;;;;;;;16.75;61.86;100108.13;1084883;54;19969;-77
2022/08/29 05:34:50;;;;;;;;;;;;;;;16.82;61.60;100112.59;1085212;54;19939;-77
2022/08/29 05:35:52;;;;;;;;;;;;;;;16.80;61.57;100101.16;1084908;54;19950;-79
2022/08/29 05:36:56;;;;;;;;;;;;;;;16.83;61.75;100105.34;1085450;54;19981;-80
2022/08/29 05:37:57;;;;;;;;;;;;;;;16.86;61.72;100102.28;1085363;54;19946;-79
2022/08/29 05:39:02;;;;;;;;;;;;;;;16.82;61.47;100103.66;1085703;47;19947;-78
2022/08/29 05:40:06;;;;;;;;;;;;;;;16.92;61.14;100106.94;1086086;54;19950;-78
2022/08/29 05:41:10;;;;;;;;;;;;;;;16.92;61.47;100104.22;1085690;54;19946;-78
2022/08/29 05:42:12;;;;;;;;;;;;;;;16.92;61.05;100106.94;1086135;54;19950;-79
2022/08/29 05:43:16;;;;;;;;;;;;;;;16.94;61.28;100104.91;1085740;54;19962;-77
2022/08/29 05:44:18;;;;;;;;;;;;;;;16.99;61.20;100107.91;1086736;46;19938;-78
2022/08/29 05:45:22;;;;;;;;;;;;;;;17.05;61.15;100110.88;1085080;46;19966;-80
2022/08/29 05:46:23;;;;;;;;;;;;;;;17.11;61.03;100104.72;1085064;54;19939;-78
2022/08/29 05:47:27;;;;;;;;;;;;;;;17.17;60.87;100109.41;1085023;54;19998;-78